Time;durP1;ratioP1;P1;durP2;ratioP2;P2;SDS_P1;SDS_P2;PMS_P1;PMS_P2;Temp;Humidity;BMP_temperature;BMP_pressure;BME280_temperature;BME280_humidity;BME280_pressure;Samples;Min_cycle;Max_cycle;Signal;HPM_P1;HPM_P2
2023/06/18 00:00:57;;;;;;;15.90;8.60;;;;;;;17.49;89.99;98688.03;4940627;29;20052;-93
2023/06/18 00:03:24;;;;;;;18.17;8.95;;;;;;;17.56;89.37;98690.25;4941265;29;20047;-94
2023/06/18 00:05:50;;;;;;;20.10;8.25;;;;;;;17.69;88.41;98698.50;4938256;29;20044;-93
2023/06/18 00:08:16;;;;;;;16.52;8.70;;;;;;;17.61;87.76;98668.50;4925598;29;20036;-94
2023/06/18 00:10:42;;;;;;;18.85;8.90;;;;;;;17.66;86.34;98669.97;4940623;29;20430;-94
2023/06/18 00:13:09;;;;;;;16.65;8.60;;;;;;;17.90;87.06;98714.41;4941009;29;20117;-93
2023/06/18 00:15:35;;;;;;;15.20;8.77;;;;;;;17.79;88.63;98706.91;4941157;29;20446;-94
2023/06/18 00:18:01;;;;;;;15.43;8.98;;;;;;;17.61;89.66;98687.34;4943659;28;20043;-94
2023/06/18 00:20:27;;;;;;;15.98;9.07;;;;;;;17.47;89.90;98679.19;4941072;29;20054;-95
2023/06/18 00:22:53;;;;;;;14.45;8.50;;;;;;;17.47;91.34;98690.78;4941175;29;20052;-94
2023/06/18 00:25:19;;;;;;;16.50;9.40;;;;;;;17.50;91.85;98712.13;4940578;29;20040;-93
2023/06/18 00:27:45;;;;;;;13.68;8.93;;;;;;;17.24;93.24;98687.59;4940960;29;20050;-93
2023/06/18 00:30:14;;;;;;;15.05;8.93;;;;;;;17.29;93.96;98706.13;4925726;29;20084;-94
2023/06/18 00:32:43;;;;;;;15.20;8.80;;;;;;;17.15;97.03;98696.13;4939389;29;20023;-94
2023/06/18 00:35:10;;;;;;;17.98;9.45;;;;;;;16.88;98.02;98676.16;4934595;29;20040;-93
2023/06/18 00:37:36;;;;;;;16.65;9.48;;;;;;;16.90;100.00;98699.31;4940374;29;20043;-93
2023/06/18 00:40:02;;;;;;;17.35;10.02;;;;;;;16.71;100.00;98680.59;4939761;29;20054;-94
2023/06/18 00:42:28;;;;;;;22.75;10.32;;;;;;;16.74;100.00;98690.28;4939890;29;20098;-92
2023/06/18 00:44:54;;;;;;;21.67;10.30;;;;;;;16.79;100.00;98712.41;4940477;29;20043;-94
2023/06/18 00:47:23;;;;;;;19.13;10.27;;;;;;;16.62;100.00;98692.69;4940296;29;20566;-94
2023/06/18 00:49:50;;;;;;;17.95;10.30;;;;;;;16.66;100.00;98697.91;4940774;28;20079;-93
2023/06/18 00:52:17;;;;;;;19.23;9.95;;;;;;;16.49;100.00;98674.63;4939915;29;20072;-94
2023/06/18 00:54:44;;;;;;;19.17;10.07;;;;;;;16.53;100.00;98692.31;4939828;29;20044;-92
2023/06/18 00:57:13;;;;;;;17.95;10.00;;;;;;;16.47;100.00;98682.75;4936988;28;20044;-94
2023/06/18 00:59:42;;;;;;;22.30;11.10;;;;;;;16.63;100.00;98717.72;4939609;29;20140;-94
2023/06/18 01:02:09;;;;;;;19.27;10.07;;;;;;;16.35;100.00;98678.03;4939713;29;20040;-94
2023/06/18 01:04:38;;;;;;;17.70;9.85;;;;;;;16.20;100.00;98663.63;4955554;28;20413;-94
2023/06/18 01:07:04;;;;;;;;;;;;;;;16.53;100.00;98713.78;4939419;29;20043;-94
2023/06/18 01:09:30;;;;;;;17.23;9.02;;;;;;;16.36;100.00;98698.56;4940199;29;19954;-94
2023/06/18 01:12:00;;;;;;;22.10;10.07;;;;;;;16.20;100.00;98674.34;4940695;29;20043;-93
2023/06/18 01:14:30;;;;;;;19.25;10.40;;;;;;;16.19;100.00;98676.13;4940352;29;20071;-93
2023/06/18 01:16:58;;;;;;;19.50;10.52;;;;;;;16.20;100.00;98672.53;4940652;29;20050;-93
2023/06/18 01:19:43;;;;;;;22.02;9.85;;;;;;;16.30;100.00;98694.38;4939836;29;20071;-93
2023/06/18 01:22:30;;;;;;;18.23;9.98;;;;;;;16.35;100.00;98699.50;4940411;29;20055;-94
2023/06/18 01:24:58;;;;;;;19.55;9.60;;;;;;;16.25;100.00;98692.88;4940328;29;20082;-94
2023/06/18 01:27:27;;;;;;;18.10;9.15;;;;;;;16.30;100.00;98707.78;4940096;29;20047;-94
2023/06/18 01:29:56;;;;;;;18.38;9.75;;;;;;;16.08;100.00;98680.31;4939440;29;20047;-93
2023/06/18 01:32:22;;;;;;;;;;;;;;;16.27;100.00;98716.00;4939714;29;20039;-95
2023/06/18 01:34:53;;;;;;;20.00;9.70;;;;;;;16.02;100.00;98689.53;4939348;29;19941;-93
2023/06/18 01:37:39;;;;;;;19.85;9.90;;;;;;;16.21;100.00;98724.34;4939527;29;20076;-94
2023/06/18 01:40:19;;;;;;;20.27;9.95;;;;;;;16.05;100.00;98702.81;4940379;29;20165;-93
2023/06/18 01:42:50;;;;;;;21.63;10.18;;;;;;;16.09;100.00;98712.44;4939771;29;20044;-93
2023/06/18 01:45:23;;;;;;;19.60;10.60;;;;;;;16.02;100.00;98705.63;4940342;29;20043;-94
2023/06/18 01:47:54;;;;;;;20.73;9.82;;;;;;;15.94;100.00;98691.72;4938557;29;20048;-94
2023/06/18 01:50:25;;;;;;;18.02;9.88;;;;;;;16.09;100.00;98720.50;4939498;29;20051;-93
2023/06/18 01:52:52;;;;;;;21.55;9.85;;;;;;;16.04;100.00;98716.28;4939363;29;20048;-93
2023/06/18 01:55:19;;;;;;;18.27;10.32;;;;;;;15.97;100.00;98719.28;4940561;29;20091;-95
2023/06/18 01:57:45;;;;;;;20.77;10.52;;;;;;;15.82;100.00;98691.41;4934222;28;20044;-93
2023/06/18 02:00:12;;;;;;;20.45;9.82;;;;;;;15.84;100.00;98698.53;4921872;29;20048;-93
2023/06/18 02:02:38;;;;;;;16.60;9.75;;;;;;;15.93;100.00;98724.88;4941529;29;20558;-95
2023/06/18 02:05:06;;;;;;;20.05;10.05;;;;;;;15.89;100.00;98718.78;4959279;29;20090;-94
2023/06/18 02:07:33;;;;;;;18.35;10.15;;;;;;;15.97;100.00;98729.16;4943397;29;20492;-94
2023/06/18 02:09:59;;;;;;;18.95;9.77;;;;;;;15.82;100.00;98717.34;4937776;29;20067;-94
2023/06/18 02:12:25;;;;;;;19.48;10.23;;;;;;;15.87;100.00;98730.53;4935420;29;20043;-92
2023/06/18 02:14:51;;;;;;;21.20;10.68;;;;;;;15.75;100.00;98715.94;4943675;29;20044;-94
2023/06/18 02:17:17;;;;;;;23.23;10.40;;;;;;;15.64;100.00;98699.47;4944160;28;20067;-93
2023/06/18 02:19:43;;;;;;;22.38;10.75;;;;;;;15.70;100.00;98715.22;4943356;29;20047;-92
2023/06/18 02:22:09;;;;;;;24.52;11.98;;;;;;;15.80;100.00;98704.03;4943860;29;20044;-93
2023/06/18 02:24:36;;;;;;;23.98;12.13;;;;;;;15.96;100.00;98730.97;4942879;29;20071;-94
2023/06/18 02:27:03;;;;;;;21.48;10.57;;;;;;;15.84;100.00;98709.25;4944589;29;20075;-94
2023/06/18 02:29:29;;;;;;;22.83;10.77;;;;;;;15.88;100.00;98710.84;4944436;29;20119;-94
2023/06/18 02:31:55;;;;;;;21.33;10.73;;;;;;;16.07;100.00;98734.91;4942395;29;20067;-94
2023/06/18 02:34:27;;;;;;;22.48;11.57;;;;;;;15.87;100.00;98709.94;4934511;29;20538;-93
2023/06/18 02:36:53;;;;;;;20.67;11.07;;;;;;;15.84;100.00;98707.44;4927283;29;20048;-94
2023/06/18 02:39:19;;;;;;;22.38;11.02;;;;;;;15.98;100.00;98718.34;4942962;29;20043;-94
2023/06/18 02:41:46;;;;;;;25.98;11.77;;;;;;;16.14;100.00;98728.31;4942142;29;20411;-93
2023/06/18 02:44:12;;;;;;;22.05;11.82;;;;;;;16.21;100.00;98693.03;4927078;29;20099;-94
2023/06/18 02:46:38;;;;;;;19.27;11.65;;;;;;;16.26;100.00;98692.78;4939917;29;20048;-93
2023/06/18 02:49:04;;;;;;;22.20;11.25;;;;;;;16.36;100.00;98703.94;4941997;29;20071;-93
2023/06/18 02:51:30;;;;;;;20.95;10.93;;;;;;;16.35;100.00;98704.84;4942977;28;20051;-95
2023/06/18 02:53:57;;;;;;;21.05;11.43;;;;;;;16.38;100.00;98713.63;4935500;29;20052;-93
2023/06/18 02:56:23;;;;;;;22.92;11.02;;;;;;;16.28;100.00;98707.00;4943393;29;20510;-94
2023/06/18 02:58:55;;;;;;;22.95;11.85;;;;;;;16.23;100.00;98717.09;4944111;29;20098;-94
2023/06/18 03:01:23;;;;;;;24.30;11.57;;;;;;;16.33;100.00;98749.69;4938758;29;20102;-93
2023/06/18 03:03:49;;;;;;;24.02;12.07;;;;;;;16.02;100.00;98724.41;4924203;29;20064;-93
2023/06/18 03:06:15;;;;;;;24.75;12.45;;;;;;;15.95;100.00;98733.72;4904885;29;20044;-94
2023/06/18 03:08:41;;;;;;;26.63;12.00;;;;;;;15.79;100.00;98715.69;4896048;29;20063;-94
2023/06/18 03:11:07;;;;;;;23.85;12.02;;;;;;;15.61;100.00;98713.88;4904478;29;20048;-94
2023/06/18 03:13:33;;;;;;;24.10;11.40;;;;;;;15.57;100.00;98720.31;4902275;29;20048;-94
2023/06/18 03:16:00;;;;;;;25.40;11.73;;;;;;;15.49;100.00;98719.84;4897037;29;20045;-95
2023/06/18 03:18:26;;;;;;;22.20;11.98;;;;;;;15.56;100.00;98734.69;4885665;29;20101;-93
2023/06/18 03:20:53;;;;;;;24.80;11.93;;;;;;;15.48;100.00;98740.38;4900074;29;20044;-94
2023/06/18 03:23:20;;;;;;;28.33;12.95;;;;;;;15.40;100.00;98710.44;4905483;29;20041;-95
2023/06/18 03:25:46;;;;;;;25.27;12.18;;;;;;;15.36;100.00;98711.53;4904357;29;20048;-93
2023/06/18 03:28:12;;;;;;;30.40;13.35;;;;;;;15.41;100.00;98728.22;4904801;29;20518;-94
2023/06/18 03:30:38;;;;;;;25.33;12.07;;;;;;;15.52;100.00;98757.22;4904292;29;20052;-94
2023/06/18 03:33:06;;;;;;;24.48;11.82;;;;;;;15.31;100.00;98732.28;4904145;29;20045;-94
2023/06/18 03:35:32;;;;;;;29.30;12.45;;;;;;;15.27;100.00;98730.72;4905816;29;20503;-94
2023/06/18 03:37:58;;;;;;;27.13;12.10;;;;;;;15.46;100.00;98760.16;4904998;29;20147;-94
2023/06/18 03:40:24;;;;;;;27.90;12.98;;;;;;;15.27;100.00;98731.56;4904829;29;20084;-94
2023/06/18 03:42:50;;;;;;;27.20;13.35;;;;;;;15.32;100.00;98742.06;4904742;29;20048;-94
2023/06/18 03:45:16;;;;;;;24.10;12.45;;;;;;;15.23;100.00;98721.06;4904588;29;20048;-94
2023/06/18 03:47:42;;;;;;;29.27;12.98;;;;;;;15.25;100.00;98730.78;4904610;29;20104;-94
2023/06/18 03:50:10;;;;;;;28.55;13.07;;;;;;;15.45;100.00;98775.38;4905169;29;20056;-93
2023/06/18 03:52:36;;;;;;;28.13;12.60;;;;;;;15.23;100.00;98734.47;4904234;29;20052;-94
2023/06/18 03:55:02;;;;;;;32.17;13.45;;;;;;;15.22;100.00;98738.06;4904686;29;20052;-95
2023/06/18 03:57:30;;;;;;;26.55;12.68;;;;;;;15.33;100.00;98763.44;4906813;29;20068;-94
2023/06/18 03:59:56;;;;;;;27.58;13.38;;;;;;;15.32;100.00;98756.34;4906819;29;20143;-95
2023/06/18 04:02:22;;;;;;;26.15;12.88;;;;;;;15.40;100.00;98769.38;4905849;29;20072;-94
2023/06/18 04:04:49;;;;;;;32.65;13.57;;;;;;;15.36;100.00;98757.94;4921072;29;20146;-94
2023/06/18 04:07:16;;;;;;;28.92;12.93;;;;;;;15.52;100.00;98767.94;4943642;29;20139;-94
2023/06/18 04:09:42;;;;;;;28.52;13.35;;;;;;;15.52;100.00;98767.94;4940492;29;20067;-95
2023/06/18 04:12:09;;;;;;;28.75;13.50;;;;;;;15.68;100.00;98790.41;4942892;29;20048;-94
2023/06/18 04:14:35;;;;;;;28.80;13.30;;;;;;;15.57;100.00;98763.22;4944571;29;20054;-95
2023/06/18 04:17:01;;;;;;;36.85;14.07;;;;;;;15.66;100.00;98769.94;4943853;29;20052;-95
2023/06/18 04:19:27;;;;;;;32.28;13.30;;;;;;;15.63;100.00;98765.59;4943383;29;20062;-94
2023/06/18 04:21:53;;;;;;;32.70;15.40;;;;;;;15.63;100.00;98757.56;4943220;29;20391;-95
2023/06/18 04:24:20;;;;;;;30.80;13.98;;;;;;;15.53;100.00;98737.53;4943731;28;20044;-94
2023/06/18 04:26:46;;;;;;;28.58;13.45;;;;;;;15.84;100.00;98793.22;4943840;28;20031;-94
2023/06/18 04:29:12;;;;;;;34.55;15.15;;;;;;;15.72;100.00;98765.22;4943704;29;20068;-93
2023/06/18 04:31:38;;;;;;;31.17;14.73;;;;;;;15.78;100.00;98770.25;4943044;28;20043;-94
2023/06/18 04:34:04;;;;;;;30.15;13.52;;;;;;;15.97;100.00;98790.84;4942948;29;20071;-94
2023/06/18 04:36:30;;;;;;;24.80;13.23;;;;;;;15.80;100.00;98768.38;4942165;29;20039;-94
2023/06/18 04:38:56;;;;;;;35.55;14.57;;;;;;;15.87;100.00;98776.97;4943182;29;20048;-94
2023/06/18 04:41:24;;;;;;;29.75;14.43;;;;;;;16.14;100.00;98814.16;4942931;29;20498;-93
2023/06/18 04:43:50;;;;;;;29.38;14.07;;;;;;;15.98;100.00;98766.63;4931843;29;20543;-95
2023/06/18 04:46:16;;;;;;;30.38;13.27;;;;;;;16.06;100.00;98760.88;4927303;29;20046;-93
2023/06/18 04:48:42;;;;;;;32.10;12.88;;;;;;;16.20;100.00;98758.38;4941782;29;20047;-93
2023/06/18 04:51:08;;;;;;;26.15;12.98;;;;;;;16.42;100.00;98755.47;4943239;29;20413;-95
2023/06/18 04:53:34;;;;;;;28.33;13.57;;;;;;;16.87;100.00;98750.47;4940544;29;20134;-94
2023/06/18 04:56:00;;;;;;;25.92;12.90;;;;;;;17.51;100.00;98783.75;4923277;29;20072;-94
2023/06/18 04:58:28;;;;;;;29.20;13.35;;;;;;;17.73;100.00;98761.06;4940325;29;20048;-94
2023/06/18 05:00:54;;;;;;;29.65;12.63;;;;;;;18.15;100.00;98760.47;4935102;29;20414;-96
2023/06/18 05:03:20;;;;;;;25.63;12.85;;;;;;;18.61;100.00;98795.44;4921628;29;20502;-95
2023/06/18 05:05:46;;;;;;;26.40;12.95;;;;;;;18.64;100.00;98756.66;4921716;29;20034;-94
2023/06/18 05:08:12;;;;;;;26.35;12.70;;;;;;;18.83;100.00;98765.41;4932288;29;20505;-94
2023/06/18 05:10:38;;;;;;;24.75;11.45;;;;;;;19.03;100.00;98788.44;4940608;29;20048;-95
2023/06/18 05:13:03;;;;;;;20.75;11.02;;;;;;;19.31;100.00;98775.94;4940822;29;20079;-92
2023/06/18 05:15:31;;;;;;;22.25;11.30;;;;;;;19.27;99.92;98763.63;4939205;29;20056;-94
2023/06/18 05:17:57;;;;;;;22.17;10.60;;;;;;;19.01;99.98;98760.72;4939145;29;20043;-93
2023/06/18 05:20:22;;;;;;;21.48;10.77;;;;;;;19.26;99.46;98769.97;4932685;28;20051;-92
2023/06/18 05:22:48;;;;;;;22.35;11.90;;;;;;;19.14;100.00;98797.69;4922782;29;20041;-94
2023/06/18 05:25:14;;;;;;;20.27;10.73;;;;;;;19.24;100.00;98772.75;4934909;29;20044;-94
2023/06/18 05:27:40;;;;;;;21.27;10.80;;;;;;;19.46;100.00;98790.28;4941284;29;20118;-94
2023/06/18 05:30:07;;;;;;;21.73;10.88;;;;;;;19.59;100.00;98780.44;4941406;29;20451;-93
2023/06/18 05:32:35;;;;;;;21.42;11.43;;;;;;;20.01;99.07;98791.28;4940884;28;20047;-93
2023/06/18 05:35:01;;;;;;;21.83;11.55;;;;;;;20.42;97.02;98801.19;4940140;28;20513;-95
2023/06/18 05:37:27;;;;;;;21.60;11.43;;;;;;;20.46;94.74;98787.38;4943175;29;20071;-93
2023/06/18 05:39:52;;;;;;;19.27;11.68;;;;;;;20.48;94.53;98793.53;4944378;29;20048;-95
2023/06/18 05:42:19;;;;;;;18.63;10.23;;;;;;;20.65;94.03;98776.22;4944251;28;20063;-95
2023/06/18 05:44:45;;;;;;;20.58;11.38;;;;;;;20.86;93.05;98768.50;4960364;28;20051;-95
2023/06/18 05:47:10;;;;;;;18.75;11.05;;;;;;;21.11;91.58;98786.53;4943852;29;20044;-94
2023/06/18 05:49:38;;;;;;;19.40;11.13;;;;;;;21.42;91.66;98795.22;4931910;29;20123;-93
2023/06/18 05:52:04;;;;;;;19.95;11.52;;;;;;;20.76;90.90;98775.50;4943202;29;20107;-95
2023/06/18 05:54:30;;;;;;;18.25;10.52;;;;;;;21.22;91.12;98806.56;4943296;29;20051;-94
2023/06/18 05:56:56;;;;;;;30.08;12.80;;;;;;;21.32;89.63;98797.69;4943685;28;20057;-94
2023/06/18 05:59:23;;;;;;;21.98;11.70;;;;;;;21.37;89.11;98793.81;4943106;29;20062;-94
2023/06/18 06:01:48;;;;;;;32.88;14.55;;;;;;;21.14;90.95;98788.16;4942238;29;20044;-94
2023/06/18 06:04:14;;;;;;;24.15;12.90;;;;;;;21.30;89.82;98787.97;4945840;29;20140;-96
2023/06/18 06:06:42;;;;;;;34.55;15.52;;;;;;;21.40;90.67;98826.03;4945846;29;20040;-94
2023/06/18 06:09:08;;;;;;;32.55;14.98;;;;;;;21.23;90.27;98820.00;4946543;29;20067;-94
2023/06/18 06:11:36;;;;;;;26.30;13.43;;;;;;;21.47;91.00;98822.84;4945009;29;20059;-95
2023/06/18 06:14:02;;;;;;;28.83;12.82;;;;;;;21.58;88.02;98800.44;4944011;29;20127;-95
2023/06/18 06:16:28;;;;;;;23.20;12.07;;;;;;;21.82;86.86;98822.16;4925216;29;20080;-95
2023/06/18 06:18:54;;;;;;;24.90;13.05;;;;;;;21.00;93.61;98823.44;4940930;29;20052;-94
2023/06/18 06:21:20;;;;;;;21.65;11.90;;;;;;;20.87;92.61;98812.59;4943657;29;20040;-95
2023/06/18 06:23:48;;;;;;;22.42;12.02;;;;;;;21.06;91.66;98798.69;4938953;29;20102;-93
2023/06/18 06:26:14;;;;;;;21.60;11.48;;;;;;;20.85;92.48;98817.25;4943645;29;20046;-94
2023/06/18 06:28:40;;;;;;;25.05;12.18;;;;;;;21.32;88.69;98815.78;4943289;29;20071;-94
2023/06/18 06:31:06;;;;;;;23.17;13.25;;;;;;;21.03;87.86;98809.69;4942712;29;20079;-94
2023/06/18 06:33:32;;;;;;;23.92;12.75;;;;;;;21.26;88.75;98818.91;4942214;29;20052;-95
2023/06/18 06:35:58;;;;;;;22.73;12.65;;;;;;;21.38;86.35;98825.28;4936082;29;20055;-94
2023/06/18 06:38:24;;;;;;;26.55;12.95;;;;;;;21.24;90.20;98827.13;4926073;29;20040;-94
2023/06/18 06:40:52;;;;;;;24.52;12.10;;;;;;;21.56;87.31;98823.13;4942954;29;20501;-94
2023/06/18 06:43:18;;;;;;;23.70;12.35;;;;;;;21.86;86.24;98802.00;4943015;29;20043;-92
2023/06/18 06:45:44;;;;;;;24.73;13.43;;;;;;;21.89;82.29;98819.84;4943107;29;20509;-94
2023/06/18 06:48:16;;;;;;;27.92;13.77;;;;;;;21.15;87.43;98821.50;4943193;29;20047;-94
2023/06/18 06:50:42;;;;;;;39.85;14.60;;;;;;;20.71;88.07;98813.66;4942697;28;20051;-94
2023/06/18 06:53:08;;;;;;;24.60;12.93;;;;;;;21.17;89.75;98800.63;4941484;29;20458;-93
2023/06/18 06:55:34;;;;;;;25.92;13.57;;;;;;;21.78;85.69;98822.47;4928409;29;20048;-94
2023/06/18 06:58:01;;;;;;;25.45;12.25;;;;;;;22.19;81.00;98832.13;4935089;29;20406;-94
2023/06/18 07:00:37;;;;;;;29.50;13.15;;;;;;;22.37;78.54;98819.09;4933365;28;20040;-92
2023/06/18 07:03:15;;;;;;;24.58;12.30;;;;;;;22.52;78.83;98813.38;4927014;29;20048;-93
2023/06/18 07:05:40;;;;;;;24.35;12.48;;;;;;;22.72;78.20;98827.25;4931540;29;20402;-95
2023/06/18 07:08:07;;;;;;;25.77;12.80;;;;;;;22.44;79.94;98812.22;4942464;29;20048;-94
2023/06/18 07:10:34;;;;;;;25.85;12.77;;;;;;;21.56;81.94;98817.72;4943698;29;20048;-94
2023/06/18 07:13:01;;;;;;;23.73;12.27;;;;;;;22.06;82.80;98824.03;4942988;29;20055;-94
2023/06/18 07:15:27;;;;;;;24.40;12.38;;;;;;;22.45;79.76;98809.41;4935089;29;20047;-93
2023/06/18 07:17:53;;;;;;;24.65;12.25;;;;;;;22.66;79.33;98811.44;4941442;29;20048;-93
2023/06/18 07:20:20;;;;;;;23.20;12.50;;;;;;;22.87;78.71;98808.94;4942313;29;20383;-95
2023/06/18 07:22:46;;;;;;;25.63;12.45;;;;;;;23.11;78.12;98806.22;4934023;29;20146;-93
2023/06/18 07:25:12;;;;;;;23.67;11.90;;;;;;;23.58;75.92;98826.88;4924980;29;20086;-94
2023/06/18 07:27:37;;;;;;;21.45;11.77;;;;;;;23.95;72.56;98821.22;4941388;29;20556;-95
2023/06/18 07:30:06;;;;;;;24.20;12.02;;;;;;;24.19;72.73;98820.22;4941828;29;20047;-96
2023/06/18 07:32:32;;;;;;;22.85;12.13;;;;;;;24.22;70.72;98809.06;4940485;29;20056;-94
2023/06/18 07:34:58;;;;;;;23.75;12.07;;;;;;;24.43;59.59;98795.56;4941705;29;20051;-94
2023/06/18 07:37:24;;;;;;;21.20;11.63;;;;;;;24.77;58.18;98818.09;4945448;29;20560;-95
2023/06/18 07:39:50;;;;;;;23.30;11.70;;;;;;;24.94;57.27;98824.81;4959366;29;20051;-95
2023/06/18 07:42:16;;;;;;;22.60;12.02;;;;;;;25.06;55.34;98816.59;4946861;29;20039;-94
2023/06/18 07:44:42;;;;;;;24.60;12.57;;;;;;;25.16;54.89;98831.97;4949076;28;20055;-93
2023/06/18 07:47:10;;;;;;;22.10;11.27;;;;;;;24.95;52.83;98799.31;4949037;28;20111;-95
2023/06/18 07:49:36;;;;;;;22.33;12.48;;;;;;;25.07;55.02;98816.47;4946812;28;20063;-95
2023/06/18 07:52:02;;;;;;;20.88;11.77;;;;;;;25.23;54.97;98798.84;4934170;29;20055;-95
2023/06/18 07:54:28;;;;;;;22.88;12.43;;;;;;;25.38;53.30;98797.50;4945253;29;20058;-95
2023/06/18 07:56:54;;;;;;;25.42;12.38;;;;;;;24.80;53.05;98806.06;4946947;28;20040;-95
2023/06/18 07:59:21;;;;;;;23.45;12.23;;;;;;;24.66;53.27;98801.81;4946355;28;20071;-94
2023/06/18 08:01:48;;;;;;;21.20;12.43;;;;;;;24.79;54.53;98802.50;4931116;29;20048;-95
2023/06/18 08:04:15;;;;;;;22.10;12.15;;;;;;;25.23;54.89;98817.88;4945523;29;20051;-96
2023/06/18 08:06:43;;;;;;;21.70;12.32;;;;;;;25.47;54.78;98813.00;4944402;29;20043;-94
2023/06/18 08:09:09;;;;;;;22.73;11.60;;;;;;;25.53;53.68;98798.84;4961236;29;20053;-94
2023/06/18 08:11:35;;;;;;;20.55;11.20;;;;;;;25.66;52.23;98790.47;4946168;28;20142;-94
2023/06/18 08:14:03;;;;;;;20.25;12.18;;;;;;;25.96;51.90;98808.69;4961160;28;20139;-94
2023/06/18 08:16:29;;;;;;;22.67;11.93;;;;;;;26.13;51.25;98804.44;4942770;29;20047;-94
2023/06/18 08:18:55;;;;;;;20.25;11.35;;;;;;;26.20;51.39;98797.41;4945695;29;20784;-95
2023/06/18 08:21:23;;;;;;;19.77;12.15;;;;;;;26.33;50.56;98797.16;4949521;29;20120;-94
2023/06/18 08:23:50;;;;;;;22.02;11.20;;;;;;;26.06;51.86;98802.38;4950516;29;20075;-95
2023/06/18 08:26:16;;;;;;;22.02;12.88;;;;;;;26.15;50.94;98796.09;4950948;28;20048;-95
2023/06/18 08:28:42;;;;;;;19.90;11.80;;;;;;;26.40;50.99;98806.47;4950438;28;20043;-93
2023/06/18 08:31:08;;;;;;;22.13;12.13;;;;;;;26.57;50.74;98794.03;4950087;29;20056;-95
2023/06/18 08:33:34;;;;;;;18.77;11.95;;;;;;;26.71;49.81;98794.63;4950152;29;20047;-95
2023/06/18 08:36:01;;;;;;;19.80;11.43;;;;;;;26.44;50.63;98796.16;4948216;29;20052;-95
2023/06/18 08:38:29;;;;;;;21.88;12.63;;;;;;;26.54;50.30;98785.25;4951149;29;20051;-96
2023/06/18 08:41:01;;;;;;;23.17;13.07;;;;;;;26.63;51.35;98778.97;4951925;29;20077;-96
2023/06/18 08:43:31;;;;;;;19.30;11.90;;;;;;;26.90;50.80;98786.44;4964877;28;20048;-95
2023/06/18 08:46:07;;;;;;;25.80;13.07;;;;;;;26.93;48.99;98786.13;4966472;29;20054;-95
2023/06/18 08:48:47;;;;;;;18.60;11.98;;;;;;;26.42;52.13;98823.56;4953908;29;20115;-95
2023/06/18 08:51:17;;;;;;;21.95;12.77;;;;;;;26.64;51.83;98800.66;4953631;29;20050;-96
2023/06/18 08:53:50;;;;;;;24.75;12.05;;;;;;;26.73;51.30;98793.47;4946928;29;20047;-95
2023/06/18 08:56:21;;;;;;;19.65;12.35;;;;;;;26.97;50.07;98787.56;4952542;29;20043;-95
2023/06/18 08:58:50;;;;;;;21.75;12.82;;;;;;;27.10;49.55;98790.00;4969261;28;20044;-95
2023/06/18 09:01:17;;;;;;;23.33;12.95;;;;;;;27.31;49.28;98789.84;4964898;29;20047;-93
2023/06/18 09:03:44;;;;;;;22.85;12.65;;;;;;;27.41;49.14;98787.06;4943966;28;20405;-95
2023/06/18 09:06:11;;;;;;;23.05;12.60;;;;;;;27.53;48.62;98794.09;4943150;28;20047;-95
2023/06/18 09:08:40;;;;;;;21.25;12.65;;;;;;;27.66;48.46;98804.69;4944576;29;20079;-95
2023/06/18 09:11:08;;;;;;;21.58;12.48;;;;;;;27.71;47.96;98785.97;4942995;29;20051;-95
2023/06/18 09:13:41;;;;;;;20.93;12.50;;;;;;;27.91;47.92;98795.00;4959837;28;20051;-96
2023/06/18 09:16:07;;;;;;;20.75;12.60;;;;;;;27.88;48.06;98778.88;4943258;29;20142;-95
2023/06/18 09:18:34;;;;;;;20.63;13.02;;;;;;;27.25;48.28;98785.81;4945011;29;20501;-95
2023/06/18 09:21:07;;;;;;;22.13;13.00;;;;;;;27.65;49.08;98811.13;4962545;28;20071;-94
2023/06/18 09:23:34;;;;;;;19.45;12.35;;;;;;;27.74;48.24;98799.34;4947068;29;20048;-96
2023/06/18 09:26:02;;;;;;;19.52;12.07;;;;;;;27.90;47.56;98785.06;4948902;29;20394;-94
2023/06/18 09:28:30;;;;;;;20.98;13.18;;;;;;;28.02;47.80;98789.31;4949647;29;20110;-96
2023/06/18 09:30:59;;;;;;;21.90;12.75;;;;;;;27.93;48.16;98778.41;4951444;28;20038;-96
2023/06/18 09:33:33;;;;;;;20.10;12.63;;;;;;;27.90;47.19;98801.44;4944135;29;20079;-96
2023/06/18 09:36:02;;;;;;;20.45;12.80;;;;;;;28.01;45.76;98779.38;4944799;28;20048;-94
2023/06/18 09:38:36;;;;;;;20.30;12.30;;;;;;;28.06;46.87;98774.31;4960616;28;20052;-95
2023/06/18 09:41:42;;;;;;;20.25;12.52;;;;;;;28.35;45.91;98800.63;4945408;29;20048;-96
2023/06/18 09:44:19;;;;;;;23.23;12.43;;;;;;;28.51;47.00;98793.63;4944039;29;20052;-96
2023/06/18 09:46:50;;;;;;;23.67;12.73;;;;;;;28.45;45.21;98774.06;4946265;29;20411;-96
2023/06/18 09:49:18;;;;;;;20.27;12.07;;;;;;;28.63;43.96;98771.38;4946063;28;20064;-96
2023/06/18 09:51:45;;;;;;;20.00;11.57;;;;;;;27.44;43.80;98775.88;4931916;29;20271;-94
2023/06/18 09:54:11;;;;;;;21.42;12.23;;;;;;;26.98;45.00;98780.25;4925407;29;20048;-96
2023/06/18 09:56:38;;;;;;;18.60;12.35;;;;;;;27.48;47.15;98785.50;4925842;29;20079;-95
2023/06/18 09:59:04;;;;;;;19.17;12.77;;;;;;;27.86;45.49;98794.56;4927749;29;20115;-94
2023/06/18 10:01:49;;;;;;;19.40;12.20;;;;;;;28.35;44.70;98822.50;4928822;29;20502;-95
2023/06/18 10:04:33;;;;;;;17.38;11.80;;;;;;;28.71;43.84;98817.09;4925408;29;20064;-95
2023/06/18 10:07:05;;;;;;;17.48;12.20;;;;;;;28.55;42.42;98787.69;4928256;29;20047;-95
2023/06/18 10:09:33;;;;;;;18.27;11.85;;;;;;;28.64;41.97;98794.09;4928829;29;20052;-95
2023/06/18 10:12:01;;;;;;;15.40;11.25;;;;;;;28.98;43.20;98804.34;4942008;29;20079;-96
2023/06/18 10:14:30;;;;;;;19.95;12.05;;;;;;;28.97;42.79;98786.19;4946783;29;20052;-95
2023/06/18 10:17:05;;;;;;;16.23;11.07;;;;;;;28.71;41.01;98789.72;4947434;29;20059;-96
2023/06/18 10:19:36;;;;;;;15.90;11.85;;;;;;;28.65;41.47;98780.28;4945551;29;20055;-96
2023/06/18 10:22:03;;;;;;;16.63;11.25;;;;;;;28.74;43.03;98778.47;4946641;29;20054;-96
2023/06/18 10:24:34;;;;;;;16.67;10.98;;;;;;;28.70;42.33;98777.06;4948909;29;20054;-96
2023/06/18 10:27:01;;;;;;;16.60;10.95;;;;;;;28.54;43.50;98771.44;4949419;29;20048;-96
2023/06/18 10:29:28;;;;;;;17.02;10.60;;;;;;;28.13;42.75;98773.69;4951799;29;20048;-96
2023/06/18 10:31:55;;;;;;;17.65;11.88;;;;;;;27.91;43.22;98784.06;4968077;28;20056;-96
2023/06/18 10:34:25;;;;;;;15.38;10.43;;;;;;;28.54;42.56;98812.47;4967618;28;20489;-95
2023/06/18 10:36:51;;;;;;;14.85;10.93;;;;;;;28.66;41.88;98775.66;4950491;29;20044;-95
2023/06/18 10:39:18;;;;;;;14.23;10.38;;;;;;;28.34;40.68;98774.28;4966701;28;20489;-95
2023/06/18 10:41:45;;;;;;;15.70;10.85;;;;;;;28.46;41.26;98792.19;4943663;29;20052;-93
2023/06/18 10:44:11;;;;;;;17.17;10.93;;;;;;;28.79;41.94;98792.53;4939467;29;20138;-95
2023/06/18 10:46:37;;;;;;;14.27;9.95;;;;;;;29.03;39.97;98771.88;4958489;28;20043;-94
2023/06/18 10:49:14;;;;;;;17.20;10.25;;;;;;;29.12;38.67;98790.09;4942629;29;20058;-95
2023/06/18 10:51:42;;;;;;;14.93;9.70;;;;;;;28.79;38.61;98765.16;4943614;29;20047;-94
2023/06/18 10:54:30;;;;;;;12.97;9.87;;;;;;;28.57;37.84;98779.34;4943125;29;20035;-93
2023/06/18 10:56:58;;;;;;;14.68;10.07;;;;;;;28.69;38.17;98775.34;4932104;29;20317;-93
2023/06/18 10:59:42;;;;;;;14.30;9.45;;;;;;;29.01;37.32;98777.50;4946330;29;20044;-94
2023/06/18 11:02:09;;;;;;;13.05;9.65;;;;;;;28.96;36.27;98757.09;4943987;28;20040;-94
2023/06/18 11:04:35;;;;;;;13.25;9.23;;;;;;;29.27;37.46;98771.22;4942936;29;20047;-92
2023/06/18 11:07:19;;;;;;;14.13;9.30;;;;;;;29.42;37.26;98760.53;4945189;29;20348;-93
2023/06/18 11:09:52;;;;;;;14.50;9.00;;;;;;;29.63;34.76;98763.72;4961371;29;20051;-95
2023/06/18 11:12:19;;;;;;;15.88;9.13;;;;;;;29.66;36.97;98766.13;4947546;29;20048;-93
2023/06/18 11:15:10;;;;;;;12.47;8.87;;;;;;;29.40;35.08;98752.47;4945042;29;20525;-95
2023/06/18 11:17:38;;;;;;;14.80;9.40;;;;;;;29.42;35.95;98782.44;4941393;28;20685;-94
2023/06/18 11:20:06;;;;;;;12.23;8.67;;;;;;;29.50;34.91;98746.88;4942084;29;20051;-93